createdAt,value
2022-11-20T08:01:28.492Z,608.00
2022-11-20T08:02:28.433Z,608.00
2022-11-20T08:03:28.371Z,608.00
2022-11-20T08:04:28.319Z,632.00
2022-11-20T08:05:28.563Z,668.00
2022-11-20T08:06:28.207Z,680.00
2022-11-20T08:07:28.221Z,688.00
2022-11-20T08:08:28.098Z,700.00
2022-11-20T08:09:28.045Z,708.00
2022-11-20T08:10:27.990Z,716.00
2022-11-20T08:11:27.944Z,728.00
2022-11-20T08:12:27.886Z,732.00
2022-11-20T08:13:27.836Z,732.00
2022-11-20T08:14:27.791Z,720.00
2022-11-20T08:15:27.729Z,680.00
2022-11-20T08:16:27.677Z,712.00
2022-11-20T08:17:27.624Z,704.00
2022-11-20T08:18:32.417Z,728.00
2022-11-20T08:19:27.524Z,780.00
2022-11-20T08:20:27.474Z,788.00
2022-11-20T08:21:27.420Z,812.00
2022-11-20T08:22:27.374Z,836.00
2022-11-20T08:23:27.321Z,880.00
2022-11-20T08:24:27.275Z,896.00
2022-11-20T08:25:27.219Z,916.00
2022-11-20T08:26:27.176Z,924.00
2022-11-20T08:27:27.116Z,976.00
2022-11-20T08:28:27.071Z,984.00
2022-11-20T08:29:27.019Z,1008.00
2022-11-20T08:30:26.973Z,1016.00
2022-11-20T08:31:26.917Z,948.00
2022-11-20T08:32:26.869Z,936.00
2022-11-20T08:33:26.813Z,920.00
2022-11-20T08:34:26.765Z,896.00
2022-11-20T08:35:26.713Z,852.00
2022-11-20T08:36:26.666Z,812.00
2022-11-20T08:37:26.615Z,828.00
2022-11-20T08:38:26.568Z,840.00
2022-11-20T08:39:26.513Z,864.00
2022-11-20T08:40:26.465Z,856.00
2022-11-20T08:41:26.416Z,832.00
2022-11-20T08:42:26.365Z,836.00
2022-11-20T08:43:26.314Z,864.00
2022-11-20T08:44:26.267Z,908.00
2022-11-20T08:45:30.939Z,936.00
2022-11-20T08:46:26.169Z,928.00
2022-11-20T08:47:26.117Z,864.00
2022-11-20T08:48:26.069Z,860.00
2022-11-20T08:49:26.016Z,868.00
2022-11-20T08:50:25.968Z,916.00
2022-11-20T08:51:25.917Z,900.00
2022-11-20T08:52:25.870Z,916.00
2022-11-20T08:53:25.819Z,924.00
2022-11-20T12:13:32.209Z,480.00
2022-11-20T12:14:32.154Z,420.00
2022-11-20T12:15:32.113Z,388.00
2022-11-20T12:16:32.049Z,368.00
2022-11-20T12:17:31.993Z,328.00
2022-11-20T12:18:31.945Z,276.00
2022-11-20T12:19:31.893Z,240.00
2022-11-20T12:20:31.841Z,232.00
2022-11-20T12:21:31.790Z,236.00
2022-11-20T12:22:31.742Z,264.00
2022-11-20T12:23:31.688Z,324.00
2022-11-20T12:24:31.641Z,404.00
2022-11-20T12:25:31.593Z,440.00
2022-11-20T12:26:31.542Z,472.00
2022-11-20T12:27:31.492Z,512.00
2022-11-20T12:28:31.498Z,528.00
2022-11-20T12:29:31.397Z,520.00
2022-11-20T12:30:31.365Z,516.00
2022-11-20T12:31:31.299Z,524.00
2022-11-20T12:32:31.252Z,532.00
2022-11-20T12:33:31.201Z,528.00
2022-11-20T12:34:31.156Z,516.00
2022-11-20T12:35:31.104Z,504.00
2022-11-20T12:36:31.093Z,492.00
2022-11-20T12:37:31.012Z,484.00
2022-11-20T12:38:30.985Z,488.00
2022-11-20T12:39:30.914Z,500.00
2022-11-20T12:40:30.916Z,496.00
2022-11-20T12:41:30.818Z,508.00
2022-11-20T12:42:30.773Z,536.00
2022-11-20T12:43:30.725Z,556.00
2022-11-20T12:44:30.718Z,560.00
2022-11-20T12:45:30.630Z,556.00
2022-11-20T12:46:30.613Z,560.00
2022-11-20T12:47:30.532Z,608.00
2022-11-20T12:48:30.488Z,632.00
2022-11-20T12:49:30.452Z,628.00
2022-11-20T12:50:30.614Z,616.00
2022-11-20T12:51:30.343Z,624.00
2022-11-20T12:52:30.301Z,636.00
2022-11-20T12:53:30.349Z,632.00
2022-11-20T12:54:30.244Z,628.00
2022-11-20T12:55:30.154Z,624.00
2022-11-20T12:56:30.118Z,612.00
2022-11-20T12:57:30.133Z,588.00
2022-11-20T12:58:30.013Z,560.00
2022-11-20T12:59:29.971Z,548.00
2022-11-20T13:00:29.921Z,560.00
2022-11-20T13:01:29.932Z,588.00
2022-11-20T13:02:29.829Z,596.00
2022-11-20T13:03:29.778Z,612.00
2022-11-20T13:04:29.734Z,644.00
2022-11-20T13:05:29.733Z,652.00
2022-11-20T13:06:29.637Z,636.00
2022-11-20T13:07:29.627Z,596.00
2022-11-20T13:08:29.584Z,568.00
2022-11-20T13:09:29.495Z,588.00
2022-11-20T13:10:29.450Z,588.00
2022-11-20T13:11:29.400Z,552.00
2022-11-20T13:12:29.356Z,532.00
2022-11-20T13:13:29.307Z,516.00
2022-11-20T13:14:29.263Z,480.00
2022-11-20T13:15:29.213Z,452.00
2022-11-20T13:16:29.169Z,428.00
2022-11-20T13:17:29.123Z,412.00
2022-11-20T13:18:29.076Z,404.00
2022-11-20T13:19:29.026Z,400.00
2022-11-20T13:20:28.986Z,384.00
2022-11-20T13:21:28.936Z,364.00
2022-11-20T13:22:28.885Z,364.00
2022-11-20T13:23:28.845Z,380.00
2022-11-20T13:24:28.849Z,360.00
2022-11-20T13:25:28.742Z,304.00
2022-11-20T13:26:28.699Z,272.00
2022-11-20T13:27:28.650Z,276.00
2022-11-20T13:28:28.604Z,280.00
2022-11-20T13:29:28.557Z,288.00
2022-11-20T13:30:28.511Z,312.00
2022-11-20T13:31:28.467Z,364.00
2022-11-20T13:32:28.421Z,408.00
2022-11-20T13:33:28.374Z,444.00
2022-11-20T13:34:28.323Z,456.00
2022-11-20T13:35:28.278Z,484.00
2022-11-20T13:36:28.232Z,492.00
2022-11-20T13:37:28.188Z,464.00
2022-11-20T13:38:32.743Z,416.00
2022-11-20T13:39:28.088Z,376.00
2022-11-20T13:40:28.043Z,352.00
2022-11-20T13:41:27.996Z,348.00
2022-11-20T13:42:27.951Z,352.00
2022-11-20T13:43:27.899Z,348.00
2022-11-20T13:44:27.854Z,340.00
2022-11-20T13:45:27.811Z,344.00
2022-11-20T13:46:27.760Z,364.00
2022-11-20T13:47:27.718Z,380.00
2022-11-20T13:48:27.669Z,364.00
2022-11-20T13:49:27.621Z,332.00
2022-11-20T13:50:27.574Z,280.00
2022-11-20T13:51:27.528Z,224.00
2022-11-20T13:52:27.480Z,172.00
2022-11-20T13:53:27.432Z,152.00
2022-11-20T13:54:27.387Z,164.00
2022-11-20T13:55:27.342Z,216.00
2022-11-20T13:56:27.293Z,280.00
2022-11-20T13:57:27.249Z,316.00
2022-11-20T13:58:27.203Z,320.00
2022-11-20T13:59:27.149Z,324.00
2022-11-20T14:00:27.165Z,340.00
2022-11-20T14:01:27.247Z,364.00
2022-11-20T14:02:27.011Z,376.00
2022-11-20T14:03:59.102Z,320.00
2022-11-20T14:04:26.916Z,244.00
2022-11-20T14:05:26.872Z,188.00
2022-11-20T14:07:10.304Z,168.00
2022-11-20T14:08:10.154Z,176.00
2022-11-20T14:09:10.107Z,164.00
2022-11-20T14:10:10.060Z,140.00
2022-11-20T14:11:10.012Z,132.00
2022-11-20T14:12:09.968Z,128.00
2022-11-20T14:13:09.919Z,136.00
2022-11-20T14:14:10.277Z,132.00
2022-11-20T14:15:09.825Z,132.00
2022-11-20T14:16:09.778Z,144.00
2022-11-20T14:17:09.732Z,164.00
2022-11-20T14:18:09.685Z,188.00
2022-11-20T14:19:09.639Z,196.00
2022-11-20T14:20:09.591Z,172.00
2022-11-20T14:21:09.563Z,148.00
2022-11-20T14:22:09.555Z,136.00
2022-11-20T14:23:09.463Z,132.00
2022-11-20T14:24:09.423Z,132.00
2022-11-20T14:25:09.354Z,148.00
2022-11-20T14:26:09.308Z,160.00
2022-11-20T14:27:09.260Z,168.00
2022-11-20T14:28:09.212Z,196.00
2022-11-20T14:29:09.166Z,236.00
2022-11-20T14:30:09.120Z,268.00
2022-11-20T14:31:09.072Z,280.00
2022-11-20T14:32:09.026Z,284.00
2022-11-20T14:33:08.981Z,284.00
2022-11-20T14:34:08.931Z,276.00
2022-11-20T14:35:08.886Z,264.00
2022-11-20T14:36:08.839Z,272.00
2022-11-20T14:37:11.441Z,284.00
2022-11-20T14:38:08.742Z,296.00
2022-11-20T14:39:08.695Z,308.00
2022-11-20T14:40:08.648Z,292.00
2022-11-20T14:41:08.636Z,268.00
2022-11-20T14:42:08.556Z,252.00
2022-11-20T14:43:08.515Z,216.00
2022-11-20T14:44:08.471Z,196.00
2022-11-20T14:45:08.411Z,196.00
2022-11-20T14:46:08.406Z,200.00
2022-11-20T14:47:08.321Z,196.00
2022-11-20T14:48:08.274Z,180.00
2022-11-20T14:49:08.222Z,160.00
2022-11-20T14:50:10.110Z,132.00
2022-11-20T14:51:08.132Z,124.00
2022-11-20T14:52:08.082Z,120.00
2022-11-20T14:53:08.033Z,104.00
2022-11-20T14:54:07.991Z,80.00
2022-11-20T14:55:07.940Z,64.00
2022-11-20T14:56:07.893Z,48.00
2022-11-20T14:57:07.846Z,48.00
2022-11-20T14:58:08.123Z,48.00
2022-11-20T14:59:07.750Z,40.00
2022-11-20T15:00:07.725Z,32.00
2022-11-20T15:01:07.656Z,32.00
2022-11-20T15:02:07.611Z,32.00
2022-11-20T15:03:07.562Z,40.00
2022-11-20T15:04:07.588Z,52.00
2022-11-20T15:05:07.489Z,60.00
2022-11-20T15:06:07.422Z,68.00
2022-11-20T15:07:07.400Z,80.00
2022-11-20T15:08:07.330Z,72.00
2022-11-20T15:09:07.290Z,64.00
2022-11-20T15:10:07.234Z,64.00
2022-11-20T15:11:07.185Z,64.00
2022-11-20T15:12:07.139Z,64.00
2022-11-20T15:13:11.425Z,64.00
2022-11-20T15:14:07.053Z,60.00
2022-11-20T15:15:06.995Z,56.00
2022-11-20T15:16:06.952Z,52.00
2022-11-20T15:17:06.900Z,52.00
2022-11-20T15:18:06.856Z,56.00
2022-11-20T15:19:06.808Z,52.00
2022-11-20T15:20:06.760Z,48.00
2022-11-20T15:22:06.668Z,52.00
2022-11-20T15:23:06.619Z,44.00
2022-11-20T15:24:06.578Z,36.00
2022-11-20T15:25:06.586Z,28.00
2022-11-20T15:26:06.475Z,20.00
2022-11-20T15:27:06.434Z,24.00
2022-11-20T15:28:06.379Z,24.00
2022-11-20T15:29:06.338Z,24.00
2022-11-20T15:30:06.289Z,28.00
2022-11-20T15:31:06.241Z,28.00
2022-11-20T15:32:11.944Z,32.00
2022-11-20T15:33:06.144Z,32.00
2022-11-20T15:34:06.097Z,32.00
2022-11-20T15:35:06.052Z,24.00
2022-11-20T15:36:06.000Z,24.00
2022-11-20T15:37:05.959Z,20.00
2022-11-20T15:38:05.915Z,20.00
2022-11-20T15:39:05.866Z,20.00
2022-11-20T15:40:05.813Z,16.00
2022-11-20T15:42:05.719Z,12.00
2022-11-20T15:43:11.373Z,8.00
2022-11-20T15:44:05.623Z,8.00
2022-11-20T15:45:05.577Z,8.00
2022-11-20T15:46:05.529Z,4.00
2022-11-20T15:47:05.482Z,4.00
2022-11-20T15:48:05.437Z,4.00
2022-11-20T15:49:05.385Z,4.00
2022-11-20T15:50:05.340Z,0.00
2022-11-20T15:51:05.293Z,4.00
2022-11-20T15:52:05.249Z,4.00
2022-11-20T15:53:05.195Z,4.00
2022-11-20T15:54:05.148Z,4.00
2022-11-20T15:55:09.492Z,0.00
2022-11-20T15:56:05.053Z,0.00
2022-11-20T15:57:05.008Z,0.00
2022-11-20T15:58:04.959Z,0.00
2022-11-20T15:59:04.914Z,0.00
2022-11-20T16:00:04.887Z,0.00
2022-11-20T16:01:04.858Z,0.00
2022-11-20T16:02:04.776Z,0.00
2022-11-20T16:03:04.725Z,0.00
2022-11-20T16:04:04.677Z,0.00
2022-11-20T16:05:04.674Z,0.00
2022-11-20T16:06:04.579Z,0.00
2022-11-20T16:07:04.606Z,0.00
2022-11-20T16:08:09.967Z,0.00
2022-11-20T16:09:04.436Z,0.00
2022-11-20T16:10:04.390Z,0.00
2022-11-20T16:11:04.340Z,0.00
2022-11-20T16:12:04.296Z,0.00
2022-11-20T16:13:04.250Z,0.00
2022-11-20T16:14:04.201Z,0.00
2022-11-20T16:15:05.587Z,0.00
2022-11-20T16:16:04.103Z,0.00
2022-11-20T16:17:04.058Z,0.00
2022-11-20T16:18:04.007Z,0.00
2022-11-20T16:19:03.958Z,0.00
2022-11-20T16:20:03.911Z,0.00
2022-11-20T16:21:03.863Z,0.00
2022-11-20T16:22:03.819Z,0.00
2022-11-20T16:23:03.772Z,0.00
2022-11-20T16:24:03.729Z,0.00
2022-11-20T16:25:03.676Z,0.00
2022-11-20T16:26:03.640Z,0.00
2022-11-20T16:27:03.580Z,0.00
2022-11-20T16:28:03.534Z,0.00
2022-11-20T16:29:03.483Z,0.00
2022-11-20T16:30:03.438Z,0.00
2022-11-20T16:31:03.387Z,0.00
2022-11-20T16:32:03.343Z,0.00
2022-11-20T16:33:03.383Z,0.00
2022-11-20T16:34:07.156Z,0.00
2022-11-20T16:35:03.294Z,0.00
2022-11-20T16:36:03.156Z,0.00
2022-11-20T16:37:03.104Z,0.00
2022-11-20T16:38:03.071Z,0.00
2022-11-20T16:39:03.045Z,0.00
2022-11-20T16:40:02.959Z,0.00
2022-11-20T16:41:02.913Z,0.00
2022-11-20T16:42:02.869Z,0.00
2022-11-20T16:43:02.847Z,0.00
2022-11-20T16:44:02.909Z,0.00
2022-11-20T16:45:02.722Z,0.00
2022-11-20T16:46:02.677Z,0.00
2022-11-20T16:47:02.625Z,0.00
2022-11-20T16:48:02.585Z,0.00
2022-11-20T16:49:02.537Z,0.00
2022-11-20T16:50:02.482Z,0.00
2022-11-20T16:51:02.434Z,0.00
2022-11-20T16:52:02.391Z,0.00
2022-11-20T16:53:02.339Z,0.00
2022-11-20T16:54:02.299Z,0.00
2022-11-20T16:55:02.247Z,0.00
2022-11-20T16:56:02.197Z,0.00
2022-11-20T16:57:02.158Z,0.00
2022-11-20T16:58:02.103Z,0.00
2022-11-20T16:59:02.064Z,0.00
2022-11-20T17:00:02.668Z,0.00
2022-11-20T17:01:01.992Z,0.00
2022-11-20T17:02:01.919Z,0.00
2022-11-20T17:03:01.869Z,0.00
2022-11-20T17:04:01.814Z,0.00
2022-11-20T17:05:01.769Z,0.00
2022-11-20T17:06:01.724Z,0.00
2022-11-20T17:07:07.641Z,0.00
2022-11-20T17:08:01.627Z,0.00
2022-11-20T17:09:01.573Z,0.00
2022-11-20T17:10:01.538Z,0.00
2022-11-20T17:11:01.482Z,0.00
2022-11-20T17:12:01.435Z,0.00
2022-11-20T17:13:01.585Z,0.00
2022-11-20T17:14:01.341Z,0.00
2022-11-20T17:15:01.300Z,0.00
2022-11-20T17:16:01.241Z,0.00
2022-11-20T17:17:01.193Z,0.00
2022-11-20T17:18:01.147Z,0.00
2022-11-20T17:19:03.228Z,0.00
2022-11-20T17:20:01.051Z,0.00
2022-11-20T17:21:01.003Z,0.00
2022-11-20T17:22:00.956Z,0.00
2022-11-20T17:23:00.918Z,0.00
2022-11-20T17:24:00.861Z,0.00
2022-11-20T17:25:00.816Z,0.00
2022-11-20T17:26:00.765Z,0.00
2022-11-20T17:28:00.677Z,0.00
2022-11-20T17:29:00.628Z,0.00
2022-11-20T17:30:00.642Z,0.00
2022-11-20T17:31:00.527Z,0.00
2022-11-20T17:32:00.476Z,0.00
2022-11-20T17:33:00.433Z,0.00
2022-11-20T17:34:00.459Z,0.00
2022-11-20T17:35:00.335Z,0.00
2022-11-20T17:36:00.292Z,0.00
2022-11-20T17:37:00.241Z,0.00
2022-11-20T17:38:00.191Z,0.00
2022-11-20T17:39:00.147Z,0.00
2022-11-20T17:40:00.139Z,0.00
2022-11-20T17:42:00.001Z,0.00
2022-11-20T17:42:59.956Z,0.00
2022-11-20T17:43:59.906Z,0.00
2022-11-20T17:44:59.857Z,0.00
2022-11-20T17:45:59.811Z,0.00
2022-11-20T17:46:59.766Z,0.00
2022-11-20T17:47:59.722Z,0.00
2022-11-20T17:48:59.678Z,0.00
2022-11-20T17:49:59.621Z,0.00
2022-11-20T17:50:59.577Z,0.00
2022-11-20T17:51:59.537Z,0.00
2022-11-20T17:52:59.476Z,0.00
2022-11-20T17:53:59.468Z,0.00
2022-11-20T17:55:59.333Z,0.00
2022-11-20T17:56:59.289Z,0.00
2022-11-20T17:57:59.242Z,0.00
2022-11-20T17:58:59.193Z,0.00
2022-11-20T17:59:59.145Z,0.00
2022-11-20T18:00:59.097Z,0.00
2022-11-20T18:02:03.449Z,0.00
2022-11-20T18:02:59.001Z,0.00
2022-11-20T18:03:58.952Z,0.00
2022-11-20T18:04:58.907Z,0.00
2022-11-20T18:05:58.857Z,0.00
2022-11-20T18:06:58.867Z,0.00
2022-11-20T18:07:58.763Z,0.00
2022-11-20T18:08:58.717Z,0.00
2022-11-20T18:09:58.668Z,0.00
2022-11-20T18:10:58.625Z,0.00
2022-11-20T18:11:58.579Z,0.00
2022-11-20T18:12:58.529Z,0.00
2022-11-20T18:13:58.477Z,0.00
2022-11-20T18:14:58.432Z,0.00
2022-11-20T18:15:58.384Z,0.00
2022-11-20T18:16:58.337Z,0.00
2022-11-20T18:17:58.316Z,0.00
2022-11-20T18:18:58.266Z,0.00
2022-11-20T18:20:27.242Z,0.00
2022-11-20T18:20:58.158Z,0.00
2022-11-20T18:21:58.099Z,0.00
2022-11-20T18:22:58.056Z,0.00
2022-11-20T18:23:58.008Z,0.00
2022-11-20T18:24:57.957Z,0.00
2022-11-20T18:25:57.912Z,0.00
2022-11-20T18:26:57.862Z,0.00
2022-11-20T18:27:57.815Z,0.00
2022-11-20T18:29:57.720Z,0.00
2022-11-20T18:30:57.680Z,0.00
2022-11-20T18:31:57.633Z,0.00
2022-11-20T18:32:57.578Z,0.00
2022-11-20T18:33:57.526Z,0.00
2022-11-20T18:34:57.486Z,0.00
2022-11-20T18:35:57.439Z,0.00
2022-11-20T18:36:57.390Z,0.00
2022-11-20T18:37:57.365Z,0.00
2022-11-20T18:38:57.332Z,0.00
2022-11-20T18:39:57.308Z,0.00
2022-11-20T18:41:01.987Z,0.00
2022-11-20T18:41:57.154Z,0.00
2022-11-20T18:42:57.106Z,0.00
2022-11-20T18:43:57.151Z,0.00
2022-11-20T18:44:57.016Z,0.00
2022-11-20T18:46:56.912Z,0.00
2022-11-20T18:47:56.869Z,0.00
2022-11-20T18:48:56.824Z,0.00
2022-11-20T18:49:56.773Z,0.00
2022-11-20T18:50:56.739Z,0.00
2022-11-20T18:51:56.677Z,0.00
2022-11-20T18:52:56.631Z,0.00
2022-11-20T18:53:56.587Z,0.00
2022-11-20T18:54:56.534Z,0.00
2022-11-20T18:55:56.488Z,0.00
2022-11-20T18:56:56.439Z,0.00
2022-11-20T18:57:56.395Z,0.00
2022-11-20T18:59:00.267Z,0.00
2022-11-20T18:59:56.303Z,0.00
2022-11-20T19:00:56.255Z,0.00
2022-11-20T19:01:56.269Z,0.00
2022-11-20T19:02:56.156Z,0.00
2022-11-20T19:03:56.120Z,0.00
2022-11-20T19:04:56.061Z,0.00
2022-11-20T19:05:56.019Z,0.00
2022-11-20T19:06:55.974Z,0.00
2022-11-20T19:07:55.921Z,0.00
2022-11-20T19:08:55.873Z,0.00
2022-11-20T19:09:59.638Z,0.00
2022-11-20T19:10:55.779Z,0.00
2022-11-20T19:11:55.742Z,0.00
2022-11-20T19:12:55.685Z,0.00
2022-11-20T19:13:55.640Z,0.00
2022-11-20T19:14:55.589Z,0.00
2022-11-20T19:15:55.548Z,0.00
2022-11-20T19:16:55.495Z,0.00
2022-11-20T19:17:55.450Z,0.00
2022-11-20T19:18:57.251Z,0.00
2022-11-20T19:19:55.405Z,0.00
2022-11-20T19:20:55.305Z,0.00
2022-11-20T19:21:55.261Z,0.00
2022-11-20T19:22:55.216Z,0.00
2022-11-20T19:23:55.171Z,0.00
2022-11-20T19:25:55.077Z,0.00
2022-11-20T19:26:55.037Z,0.00
2022-11-20T19:27:54.984Z,0.00
2022-11-20T19:28:54.935Z,0.00
2022-11-20T19:29:54.885Z,0.00
2022-11-20T19:30:54.838Z,0.00
2022-11-20T19:31:54.789Z,0.00
2022-11-20T19:32:54.746Z,0.00
2022-11-20T19:33:54.700Z,0.00
2022-11-20T19:34:54.648Z,0.00
2022-11-20T19:35:54.600Z,0.00
2022-11-20T19:36:54.556Z,0.00
2022-11-20T19:37:54.509Z,0.00
2022-11-20T19:38:54.461Z,0.00
2022-11-20T19:39:54.417Z,0.00
2022-11-20T19:40:54.368Z,0.00
2022-11-20T19:41:54.318Z,0.00
2022-11-20T19:42:54.276Z,0.00
2022-11-20T19:43:54.226Z,0.00
2022-11-20T19:44:54.181Z,0.00
2022-11-20T19:45:54.130Z,0.00
2022-11-20T19:46:54.092Z,0.00
2022-11-20T19:48:07.829Z,0.00
2022-11-20T19:48:53.993Z,0.00
2022-11-20T19:49:53.943Z,0.00
2022-11-20T19:50:53.905Z,0.00
2022-11-20T19:51:53.853Z,0.00
2022-11-20T19:52:58.526Z,0.00
2022-11-20T19:53:53.762Z,0.00
2022-11-20T19:54:53.711Z,0.00
2022-11-20T19:55:53.663Z,0.00
2022-11-20T19:56:53.617Z,0.00
2022-11-20T19:57:53.567Z,0.00
2022-11-20T19:58:53.523Z,0.00
2022-11-20T19:59:53.474Z,0.00
2022-11-20T20:00:53.429Z,0.00
2022-11-20T20:01:53.444Z,0.00
2022-11-20T20:02:53.343Z,0.00
2022-11-20T20:03:53.290Z,0.00
2022-11-20T20:04:53.245Z,0.00
2022-11-20T20:05:53.195Z,0.00
2022-11-20T20:06:53.153Z,0.00
2022-11-20T20:07:53.103Z,0.00
2022-11-20T20:08:53.056Z,0.00
2022-11-20T20:09:53.016Z,0.00
2022-11-20T20:10:56.738Z,0.00
2022-11-20T20:11:52.913Z,0.00
2022-11-20T20:12:52.874Z,0.00
2022-11-20T20:13:52.820Z,0.00
2022-11-20T20:14:52.781Z,0.00
2022-11-20T20:15:52.729Z,0.00
2022-11-20T20:16:52.685Z,0.00
2022-11-20T20:17:52.633Z,0.00
2022-11-20T20:18:52.591Z,0.00
2022-11-20T20:19:52.540Z,0.00
2022-11-20T20:20:52.494Z,0.00
2022-11-20T20:21:52.448Z,0.00
2022-11-20T20:22:52.403Z,0.00
2022-11-20T20:23:52.353Z,0.00
2022-11-20T20:24:52.312Z,0.00
2022-11-20T20:25:52.260Z,0.00
2022-11-20T20:26:55.557Z,0.00
2022-11-20T20:27:52.174Z,0.00
2022-11-20T20:28:52.122Z,0.00
2022-11-20T20:29:52.076Z,0.00
2022-11-20T20:30:52.030Z,0.00
2022-11-20T20:31:51.982Z,0.00
2022-11-20T20:32:56.093Z,0.00
2022-11-20T20:33:51.889Z,0.00
2022-11-20T20:34:51.841Z,0.00
2022-11-20T20:35:51.801Z,0.00
2022-11-20T20:36:51.749Z,0.00
2022-11-20T20:37:51.702Z,0.00
2022-11-20T20:38:51.658Z,0.00
2022-11-20T20:39:51.606Z,0.00
2022-11-20T20:40:51.562Z,0.00
2022-11-20T20:41:51.514Z,0.00
2022-11-20T20:42:51.470Z,0.00
2022-11-20T20:43:51.421Z,0.00
2022-11-20T20:44:51.376Z,0.00
2022-11-20T20:45:51.326Z,0.00
2022-11-20T20:46:51.282Z,0.00
2022-11-20T20:47:51.239Z,0.00
2022-11-20T20:48:54.388Z,0.00
2022-11-20T20:49:51.137Z,0.00
2022-11-20T20:50:51.094Z,0.00
2022-11-20T20:51:51.045Z,0.00
2022-11-20T20:52:51.001Z,0.00
2022-11-20T20:53:50.953Z,0.00
2022-11-20T20:54:50.908Z,0.00
2022-11-20T20:55:50.861Z,0.00
2022-11-20T20:56:50.815Z,0.00
2022-11-20T20:57:50.765Z,0.00
2022-11-20T20:58:50.723Z,0.00
2022-11-20T20:59:50.671Z,0.00
2022-11-20T21:00:50.627Z,0.00
2022-11-20T21:01:50.620Z,0.00
2022-11-20T21:02:50.535Z,0.00
2022-11-20T21:03:50.496Z,0.00
2022-11-20T21:04:50.445Z,0.00
2022-11-20T21:05:50.394Z,0.00
2022-11-20T21:06:50.345Z,0.00
2022-11-20T21:07:50.299Z,0.00
2022-11-20T21:08:50.252Z,0.00
2022-11-20T21:09:50.209Z,0.00
2022-11-20T21:10:50.159Z,0.00
2022-11-20T21:11:50.115Z,0.00
2022-11-20T21:12:50.065Z,0.00
2022-11-20T21:13:50.016Z,0.00
2022-11-20T21:14:49.971Z,0.00
2022-11-20T21:15:49.923Z,0.00
2022-11-20T21:16:49.876Z,0.00
2022-11-20T21:17:49.832Z,0.00
2022-11-20T21:18:49.786Z,0.00
2022-11-20T21:19:49.738Z,0.00
2022-11-20T21:20:49.693Z,0.00
2022-11-20T21:21:49.645Z,0.00
2022-11-20T21:22:49.594Z,0.00
2022-11-20T21:23:49.545Z,0.00
2022-11-20T21:24:49.504Z,0.00
2022-11-20T21:25:49.458Z,0.00
